sensor_id;sensor_type;location;lat;lon;timestamp;P1;durP1;ratioP1;P2;durP2;ratioP2
77522;SDS011;66637;-29.628;-49.938;2023-05-28T00:00:55;23.17;;;2.30;;
77522;SDS011;66637;-29.628;-49.938;2023-05-28T00:03:35;16.05;;;2.00;;
77522;SDS011;66637;-29.628;-49.938;2023-05-28T00:06:06;13.10;;;2.30;;
77522;SDS011;66637;-29.628;-49.938;2023-05-28T00:08:37;18.92;;;2.33;;
77522;SDS011;66637;-29.628;-49.938;2023-05-28T00:11:09;14.68;;;2.00;;
77522;SDS011;66637;-29.628;-49.938;2023-05-28T00:14:15;14.23;;;2.00;;
77522;SDS011;66637;-29.628;-49.938;2023-05-28T00:17:08;17.02;;;2.97;;
77522;SDS011;66637;-29.628;-49.938;2023-05-28T00:19:42;17.65;;;2.33;;
77522;SDS011;66637;-29.628;-49.938;2023-05-28T00:22:15;17.05;;;2.30;;
77522;SDS011;66637;-29.628;-49.938;2023-05-28T00:24:50;14.70;;;2.65;;
77522;SDS011;66637;-29.628;-49.938;2023-05-28T00:27:20;15.02;;;2.28;;
77522;SDS011;66637;-29.628;-49.938;2023-05-28T00:29:59;19.15;;;2.50;;
77522;SDS011;66637;-29.628;-49.938;2023-05-28T00:32:32;20.05;;;2.45;;
77522;SDS011;66637;-29.628;-49.938;2023-05-28T00:35:07;24.05;;;2.72;;
77522;SDS011;66637;-29.628;-49.938;2023-05-28T00:37:42;17.08;;;2.70;;
77522;SDS011;66637;-29.628;-49.938;2023-05-28T00:40:25;11.07;;;2.15;;
77522;SDS011;66637;-29.628;-49.938;2023-05-28T00:43:40;15.85;;;2.40;;
77522;SDS011;66637;-29.628;-49.938;2023-05-28T00:46:44;17.92;;;2.30;;
77522;SDS011;66637;-29.628;-49.938;2023-05-28T00:49:20;16.42;;;2.50;;
77522;SDS011;66637;-29.628;-49.938;2023-05-28T00:52:19;17.58;;;2.45;;
77522;SDS011;66637;-29.628;-49.938;2023-05-28T00:55:12;14.38;;;2.10;;
77522;SDS011;66637;-29.628;-49.938;2023-05-28T00:58:11;10.65;;;1.60;;
77522;SDS011;66637;-29.628;-49.938;2023-05-28T01:01:09;15.70;;;2.13;;
77522;SDS011;66637;-29.628;-49.938;2023-05-28T01:03:52;19.48;;;2.13;;
77522;SDS011;66637;-29.628;-49.938;2023-05-28T01:06:45;9.45;;;1.35;;
77522;SDS011;66637;-29.628;-49.938;2023-05-28T01:09:21;13.18;;;2.20;;
77522;SDS011;66637;-29.628;-49.938;2023-05-28T01:14:39;17.40;;;1.40;;
77522;SDS011;66637;-29.628;-49.938;2023-05-28T01:17:10;14.63;;;1.50;;
77522;SDS011;66637;-29.628;-49.938;2023-05-28T01:20:17;12.85;;;1.85;;
77522;SDS011;66637;-29.628;-49.938;2023-05-28T01:23:10;14.38;;;1.55;;
77522;SDS011;66637;-29.628;-49.938;2023-05-28T01:25:49;13.80;;;1.85;;
77522;SDS011;66637;-29.628;-49.938;2023-05-28T01:28:27;11.20;;;1.52;;
77522;SDS011;66637;-29.628;-49.938;2023-05-28T01:33:33;17.33;;;1.75;;
77522;SDS011;66637;-29.628;-49.938;2023-05-28T01:36:07;13.90;;;1.92;;
77522;SDS011;66637;-29.628;-49.938;2023-05-28T01:38:48;19.35;;;1.90;;
77522;SDS011;66637;-29.628;-49.938;2023-05-28T01:41:33;14.02;;;2.08;;
77522;SDS011;66637;-29.628;-49.938;2023-05-28T01:44:07;13.55;;;1.52;;
77522;SDS011;66637;-29.628;-49.938;2023-05-28T01:46:47;12.00;;;1.90;;
77522;SDS011;66637;-29.628;-49.938;2023-05-28T01:49:24;12.82;;;2.10;;
77522;SDS011;66637;-29.628;-49.938;2023-05-28T01:52:01;6.50;;;1.42;;
77522;SDS011;66637;-29.628;-49.938;2023-05-28T01:54:41;14.25;;;1.80;;
77522;SDS011;66637;-29.628;-49.938;2023-05-28T01:57:14;13.43;;;1.77;;
77522;SDS011;66637;-29.628;-49.938;2023-05-28T01:59:50;14.10;;;2.05;;
77522;SDS011;66637;-29.628;-49.938;2023-05-28T02:02:23;12.88;;;1.80;;
77522;SDS011;66637;-29.628;-49.938;2023-05-28T02:04:56;12.90;;;1.70;;
77522;SDS011;66637;-29.628;-49.938;2023-05-28T02:07:36;14.65;;;1.77;;
77522;SDS011;66637;-29.628;-49.938;2023-05-28T02:10:09;12.00;;;1.58;;
77522;SDS011;66637;-29.628;-49.938;2023-05-28T02:12:50;14.30;;;1.73;;
77522;SDS011;66637;-29.628;-49.938;2023-05-28T02:15:24;12.38;;;1.40;;
77522;SDS011;66637;-29.628;-49.938;2023-05-28T02:17:59;15.30;;;1.77;;
77522;SDS011;66637;-29.628;-49.938;2023-05-28T02:20:32;14.35;;;1.63;;
77522;SDS011;66637;-29.628;-49.938;2023-05-28T02:23:03;11.88;;;1.63;;
77522;SDS011;66637;-29.628;-49.938;2023-05-28T02:25:36;15.68;;;1.63;;
77522;SDS011;66637;-29.628;-49.938;2023-05-28T02:28:06;13.65;;;1.67;;
77522;SDS011;66637;-29.628;-49.938;2023-05-28T02:30:37;15.40;;;1.55;;
77522;SDS011;66637;-29.628;-49.938;2023-05-28T02:33:11;17.67;;;1.67;;
77522;SDS011;66637;-29.628;-49.938;2023-05-28T02:35:50;12.80;;;1.17;;
77522;SDS011;66637;-29.628;-49.938;2023-05-28T02:38:25;13.18;;;1.42;;
77522;SDS011;66637;-29.628;-49.938;2023-05-28T02:41:45;14.13;;;1.90;;
77522;SDS011;66637;-29.628;-49.938;2023-05-28T02:44:52;17.90;;;1.85;;
77522;SDS011;66637;-29.628;-49.938;2023-05-28T02:48:12;12.57;;;1.25;;
77522;SDS011;66637;-29.628;-49.938;2023-05-28T02:50:52;18.50;;;1.70;;
77522;SDS011;66637;-29.628;-49.938;2023-05-28T02:53:57;18.95;;;1.65;;
77522;SDS011;66637;-29.628;-49.938;2023-05-28T02:56:46;11.63;;;1.42;;
77522;SDS011;66637;-29.628;-49.938;2023-05-28T03:00:23;11.23;;;1.77;;
77522;SDS011;66637;-29.628;-49.938;2023-05-28T03:03:39;15.90;;;1.88;;
77522;SDS011;66637;-29.628;-49.938;2023-05-28T03:06:54;17.35;;;1.48;;
77522;SDS011;66637;-29.628;-49.938;2023-05-28T03:09:50;9.55;;;1.60;;
77522;SDS011;66637;-29.628;-49.938;2023-05-28T03:13:42;13.95;;;1.73;;
77522;SDS011;66637;-29.628;-49.938;2023-05-28T03:16:54;13.57;;;1.48;;
77522;SDS011;66637;-29.628;-49.938;2023-05-28T03:20:07;13.93;;;1.50;;
77522;SDS011;66637;-29.628;-49.938;2023-05-28T03:22:43;10.50;;;1.33;;
77522;SDS011;66637;-29.628;-49.938;2023-05-28T03:29:26;11.63;;;1.35;;
77522;SDS011;66637;-29.628;-49.938;2023-05-28T03:32:40;8.10;;;1.02;;
77522;SDS011;66637;-29.628;-49.938;2023-05-28T03:35:11;12.32;;;1.17;;
77522;SDS011;66637;-29.628;-49.938;2023-05-28T03:37:57;14.77;;;1.27;;
77522;SDS011;66637;-29.628;-49.938;2023-05-28T03:40:30;11.68;;;1.15;;
77522;SDS011;66637;-29.628;-49.938;2023-05-28T03:45:58;10.65;;;1.27;;
77522;SDS011;66637;-29.628;-49.938;2023-05-28T03:48:29;15.48;;;1.40;;
77522;SDS011;66637;-29.628;-49.938;2023-05-28T03:51:01;10.27;;;1.38;;
77522;SDS011;66637;-29.628;-49.938;2023-05-28T03:53:34;10.23;;;0.98;;
77522;SDS011;66637;-29.628;-49.938;2023-05-28T03:56:05;14.70;;;1.40;;
77522;SDS011;66637;-29.628;-49.938;2023-05-28T03:58:35;12.70;;;1.27;;
77522;SDS011;66637;-29.628;-49.938;2023-05-28T04:01:07;11.82;;;1.45;;
77522;SDS011;66637;-29.628;-49.938;2023-05-28T04:03:53;9.07;;;1.58;;
77522;SDS011;66637;-29.628;-49.938;2023-05-28T04:06:26;14.48;;;1.20;;
77522;SDS011;66637;-29.628;-49.938;2023-05-28T04:08:57;15.68;;;1.30;;
77522;SDS011;66637;-29.628;-49.938;2023-05-28T04:11:29;16.08;;;1.40;;
77522;SDS011;66637;-29.628;-49.938;2023-05-28T04:14:00;9.73;;;1.20;;
77522;SDS011;66637;-29.628;-49.938;2023-05-28T04:16:31;14.82;;;1.52;;
77522;SDS011;66637;-29.628;-49.938;2023-05-28T04:19:04;12.20;;;1.35;;
77522;SDS011;66637;-29.628;-49.938;2023-05-28T04:21:35;10.63;;;1.67;;
77522;SDS011;66637;-29.628;-49.938;2023-05-28T04:24:06;12.23;;;1.60;;
77522;SDS011;66637;-29.628;-49.938;2023-05-28T04:26:37;10.85;;;1.05;;
77522;SDS011;66637;-29.628;-49.938;2023-05-28T04:29:08;7.47;;;1.30;;
77522;SDS011;66637;-29.628;-49.938;2023-05-28T04:31:38;10.70;;;0.90;;
77522;SDS011;66637;-29.628;-49.938;2023-05-28T04:34:10;10.10;;;1.00;;
77522;SDS011;66637;-29.628;-49.938;2023-05-28T04:36:45;9.02;;;1.20;;
77522;SDS011;66637;-29.628;-49.938;2023-05-28T04:39:17;10.18;;;1.48;;
77522;SDS011;66637;-29.628;-49.938;2023-05-28T04:45:00;8.35;;;1.25;;
77522;SDS011;66637;-29.628;-49.938;2023-05-28T04:47:40;9.93;;;1.15;;
77522;SDS011;66637;-29.628;-49.938;2023-05-28T04:50:24;8.93;;;0.93;;
77522;SDS011;66637;-29.628;-49.938;2023-05-28T04:53:30;12.18;;;1.02;;
77522;SDS011;66637;-29.628;-49.938;2023-05-28T04:56:03;10.45;;;1.00;;
77522;SDS011;66637;-29.628;-49.938;2023-05-28T04:58:34;11.38;;;0.95;;
77522;SDS011;66637;-29.628;-49.938;2023-05-28T05:01:06;6.35;;;1.00;;
77522;SDS011;66637;-29.628;-49.938;2023-05-28T05:03:37;12.75;;;1.10;;
77522;SDS011;66637;-29.628;-49.938;2023-05-28T05:06:08;9.07;;;0.98;;
77522;SDS011;66637;-29.628;-49.938;2023-05-28T05:08:40;11.57;;;1.15;;
77522;SDS011;66637;-29.628;-49.938;2023-05-28T05:11:10;9.60;;;1.10;;
77522;SDS011;66637;-29.628;-49.938;2023-05-28T05:13:42;8.25;;;1.08;;
77522;SDS011;66637;-29.628;-49.938;2023-05-28T05:16:12;9.13;;;1.50;;
77522;SDS011;66637;-29.628;-49.938;2023-05-28T05:18:43;9.68;;;1.35;;
77522;SDS011;66637;-29.628;-49.938;2023-05-28T05:21:16;11.68;;;1.23;;
77522;SDS011;66637;-29.628;-49.938;2023-05-28T05:27:40;12.75;;;1.13;;
77522;SDS011;66637;-29.628;-49.938;2023-05-28T05:30:11;9.38;;;1.33;;
77522;SDS011;66637;-29.628;-49.938;2023-05-28T05:32:43;13.88;;;1.52;;
77522;SDS011;66637;-29.628;-49.938;2023-05-28T05:35:14;8.25;;;1.00;;
77522;SDS011;66637;-29.628;-49.938;2023-05-28T05:37:48;8.00;;;0.80;;
77522;SDS011;66637;-29.628;-49.938;2023-05-28T05:40:21;8.60;;;0.88;;
77522;SDS011;66637;-29.628;-49.938;2023-05-28T05:43:21;13.40;;;1.13;;
77522;SDS011;66637;-29.628;-49.938;2023-05-28T05:46:36;10.23;;;1.00;;
77522;SDS011;66637;-29.628;-49.938;2023-05-28T05:49:44;10.13;;;1.00;;
77522;SDS011;66637;-29.628;-49.938;2023-05-28T05:52:52;7.53;;;0.93;;
77522;SDS011;66637;-29.628;-49.938;2023-05-28T05:56:06;7.78;;;1.17;;
77522;SDS011;66637;-29.628;-49.938;2023-05-28T05:58:58;13.32;;;1.35;;
77522;SDS011;66637;-29.628;-49.938;2023-05-28T06:01:39;11.00;;;1.30;;
77522;SDS011;66637;-29.628;-49.938;2023-05-28T06:04:39;5.07;;;0.98;;
77522;SDS011;66637;-29.628;-49.938;2023-05-28T06:08:03;6.78;;;1.02;;
77522;SDS011;66637;-29.628;-49.938;2023-05-28T06:11:11;9.25;;;1.00;;
77522;SDS011;66637;-29.628;-49.938;2023-05-28T06:14:35;8.88;;;1.02;;
77522;SDS011;66637;-29.628;-49.938;2023-05-28T06:17:36;11.63;;;1.02;;
77522;SDS011;66637;-29.628;-49.938;2023-05-28T06:20:18;7.65;;;1.02;;
77522;SDS011;66637;-29.628;-49.938;2023-05-28T06:23:02;12.52;;;1.75;;
77522;SDS011;66637;-29.628;-49.938;2023-05-28T06:25:47;9.55;;;1.13;;
77522;SDS011;66637;-29.628;-49.938;2023-05-28T06:29:01;8.00;;;0.90;;
77522;SDS011;66637;-29.628;-49.938;2023-05-28T06:32:12;8.15;;;0.85;;
77522;SDS011;66637;-29.628;-49.938;2023-05-28T06:35:03;7.10;;;1.20;;
77522;SDS011;66637;-29.628;-49.938;2023-05-28T06:38:24;9.77;;;1.05;;
77522;SDS011;66637;-29.628;-49.938;2023-05-28T06:41:25;10.75;;;1.10;;
77522;SDS011;66637;-29.628;-49.938;2023-05-28T06:44:07;7.75;;;0.80;;
77522;SDS011;66637;-29.628;-49.938;2023-05-28T06:46:55;8.27;;;0.77;;
77522;SDS011;66637;-29.628;-49.938;2023-05-28T06:49:44;8.40;;;0.80;;
77522;SDS011;66637;-29.628;-49.938;2023-05-28T06:52:29;9.95;;;0.82;;
77522;SDS011;66637;-29.628;-49.938;2023-05-28T06:55:00;7.68;;;1.33;;
77522;SDS011;66637;-29.628;-49.938;2023-05-28T06:57:32;8.23;;;1.10;;
77522;SDS011;66637;-29.628;-49.938;2023-05-28T07:00:31;8.18;;;1.00;;
77522;SDS011;66637;-29.628;-49.938;2023-05-28T07:03:23;11.23;;;1.10;;
77522;SDS011;66637;-29.628;-49.938;2023-05-28T07:06:00;8.00;;;1.20;;
77522;SDS011;66637;-29.628;-49.938;2023-05-28T07:08:32;8.77;;;1.42;;
77522;SDS011;66637;-29.628;-49.938;2023-05-28T07:11:03;8.70;;;0.73;;
77522;SDS011;66637;-29.628;-49.938;2023-05-28T07:13:36;12.38;;;1.35;;
77522;SDS011;66637;-29.628;-49.938;2023-05-28T07:16:07;8.40;;;0.95;;
77522;SDS011;66637;-29.628;-49.938;2023-05-28T07:18:37;10.43;;;1.08;;
77522;SDS011;66637;-29.628;-49.938;2023-05-28T07:21:08;7.53;;;1.05;;
77522;SDS011;66637;-29.628;-49.938;2023-05-28T07:23:43;8.57;;;0.70;;
77522;SDS011;66637;-29.628;-49.938;2023-05-28T07:26:14;6.45;;;0.82;;
77522;SDS011;66637;-29.628;-49.938;2023-05-28T07:28:44;8.35;;;0.88;;
77522;SDS011;66637;-29.628;-49.938;2023-05-28T07:31:14;8.55;;;0.90;;
77522;SDS011;66637;-29.628;-49.938;2023-05-28T07:33:45;4.60;;;0.70;;
77522;SDS011;66637;-29.628;-49.938;2023-05-28T07:36:32;8.30;;;0.77;;
77522;SDS011;66637;-29.628;-49.938;2023-05-28T07:39:05;10.23;;;0.88;;
77522;SDS011;66637;-29.628;-49.938;2023-05-28T07:41:38;6.22;;;0.68;;
77522;SDS011;66637;-29.628;-49.938;2023-05-28T07:44:14;5.75;;;0.70;;
77522;SDS011;66637;-29.628;-49.938;2023-05-28T07:46:52;11.02;;;0.90;;
77522;SDS011;66637;-29.628;-49.938;2023-05-28T07:50:03;6.13;;;0.80;;
77522;SDS011;66637;-29.628;-49.938;2023-05-28T07:52:54;6.18;;;1.15;;
77522;SDS011;66637;-29.628;-49.938;2023-05-28T07:55:26;7.82;;;1.30;;
77522;SDS011;66637;-29.628;-49.938;2023-05-28T07:57:58;6.82;;;0.88;;
77522;SDS011;66637;-29.628;-49.938;2023-05-28T08:00:31;5.68;;;0.52;;
77522;SDS011;66637;-29.628;-49.938;2023-05-28T08:03:04;6.32;;;0.75;;
77522;SDS011;66637;-29.628;-49.938;2023-05-28T08:06:27;5.18;;;0.80;;
77522;SDS011;66637;-29.628;-49.938;2023-05-28T08:09:14;9.15;;;0.77;;
77522;SDS011;66637;-29.628;-49.938;2023-05-28T08:12:04;13.00;;;1.00;;
77522;SDS011;66637;-29.628;-49.938;2023-05-28T08:15:02;10.02;;;1.08;;
77522;SDS011;66637;-29.628;-49.938;2023-05-28T08:17:40;10.23;;;1.33;;
77522;SDS011;66637;-29.628;-49.938;2023-05-28T08:20:53;11.32;;;0.95;;
77522;SDS011;66637;-29.628;-49.938;2023-05-28T08:23:38;7.75;;;0.77;;
77522;SDS011;66637;-29.628;-49.938;2023-05-28T08:26:36;8.35;;;1.00;;
77522;SDS011;66637;-29.628;-49.938;2023-05-28T08:29:36;10.02;;;0.73;;
77522;SDS011;66637;-29.628;-49.938;2023-05-28T08:32:36;7.63;;;0.80;;
77522;SDS011;66637;-29.628;-49.938;2023-05-28T08:35:22;6.47;;;0.70;;
77522;SDS011;66637;-29.628;-49.938;2023-05-28T08:38:53;6.43;;;0.75;;
77522;SDS011;66637;-29.628;-49.938;2023-05-28T08:41:31;8.13;;;1.10;;
77522;SDS011;66637;-29.628;-49.938;2023-05-28T08:44:05;6.55;;;1.10;;
77522;SDS011;66637;-29.628;-49.938;2023-05-28T08:46:36;8.25;;;1.00;;
77522;SDS011;66637;-29.628;-49.938;2023-05-28T08:49:41;10.35;;;1.00;;
77522;SDS011;66637;-29.628;-49.938;2023-05-28T08:55:17;8.52;;;1.00;;
77522;SDS011;66637;-29.628;-49.938;2023-05-28T08:58:14;10.43;;;1.10;;
77522;SDS011;66637;-29.628;-49.938;2023-05-28T09:01:03;9.15;;;1.08;;
77522;SDS011;66637;-29.628;-49.938;2023-05-28T09:04:03;7.38;;;0.98;;
77522;SDS011;66637;-29.628;-49.938;2023-05-28T09:06:46;8.43;;;0.85;;
77522;SDS011;66637;-29.628;-49.938;2023-05-28T09:09:51;11.05;;;1.15;;
77522;SDS011;66637;-29.628;-49.938;2023-05-28T09:12:34;6.60;;;1.10;;
77522;SDS011;66637;-29.628;-49.938;2023-05-28T09:15:21;13.88;;;1.20;;
77522;SDS011;66637;-29.628;-49.938;2023-05-28T09:18:19;6.00;;;0.98;;
77522;SDS011;66637;-29.628;-49.938;2023-05-28T09:21:00;11.65;;;1.40;;
77522;SDS011;66637;-29.628;-49.938;2023-05-28T09:24:18;9.88;;;1.17;;
77522;SDS011;66637;-29.628;-49.938;2023-05-28T09:27:06;9.10;;;0.95;;
77522;SDS011;66637;-29.628;-49.938;2023-05-28T09:29:40;13.20;;;1.23;;
77522;SDS011;66637;-29.628;-49.938;2023-05-28T09:32:10;7.50;;;1.42;;
77522;SDS011;66637;-29.628;-49.938;2023-05-28T09:34:40;8.75;;;1.00;;
77522;SDS011;66637;-29.628;-49.938;2023-05-28T09:37:12;11.73;;;1.40;;
77522;SDS011;66637;-29.628;-49.938;2023-05-28T09:39:46;12.63;;;1.33;;
77522;SDS011;66637;-29.628;-49.938;2023-05-28T09:42:16;9.48;;;1.38;;
77522;SDS011;66637;-29.628;-49.938;2023-05-28T09:44:50;9.25;;;1.30;;
77522;SDS011;66637;-29.628;-49.938;2023-05-28T09:47:44;8.20;;;1.00;;
77522;SDS011;66637;-29.628;-49.938;2023-05-28T09:50:53;10.18;;;1.20;;
77522;SDS011;66637;-29.628;-49.938;2023-05-28T09:53:34;9.15;;;1.05;;
77522;SDS011;66637;-29.628;-49.938;2023-05-28T09:56:34;10.65;;;1.00;;
77522;SDS011;66637;-29.628;-49.938;2023-05-28T09:59:17;13.00;;;1.27;;
77522;SDS011;66637;-29.628;-49.938;2023-05-28T10:02:37;10.20;;;1.20;;
77522;SDS011;66637;-29.628;-49.938;2023-05-28T10:05:45;10.13;;;1.13;;
77522;SDS011;66637;-29.628;-49.938;2023-05-28T10:08:40;9.20;;;1.08;;
77522;SDS011;66637;-29.628;-49.938;2023-05-28T10:11:42;10.80;;;0.95;;
77522;SDS011;66637;-29.628;-49.938;2023-05-28T10:14:33;10.52;;;1.20;;
77522;SDS011;66637;-29.628;-49.938;2023-05-28T10:17:41;8.98;;;1.00;;
77522;SDS011;66637;-29.628;-49.938;2023-05-28T10:20:45;11.00;;;1.20;;
77522;SDS011;66637;-29.628;-49.938;2023-05-28T10:23:53;5.28;;;0.73;;
77522;SDS011;66637;-29.628;-49.938;2023-05-28T10:26:33;11.52;;;1.33;;
77522;SDS011;66637;-29.628;-49.938;2023-05-28T10:29:23;8.63;;;1.02;;
77522;SDS011;66637;-29.628;-49.938;2023-05-28T10:32:27;12.05;;;1.08;;
77522;SDS011;66637;-29.628;-49.938;2023-05-28T10:35:29;10.60;;;1.00;;
77522;SDS011;66637;-29.628;-49.938;2023-05-28T10:38:22;5.93;;;0.80;;
77522;SDS011;66637;-29.628;-49.938;2023-05-28T10:41:18;6.43;;;1.40;;
77522;SDS011;66637;-29.628;-49.938;2023-05-28T10:44:18;9.50;;;0.90;;
77522;SDS011;66637;-29.628;-49.938;2023-05-28T10:47:18;9.85;;;1.17;;
77522;SDS011;66637;-29.628;-49.938;2023-05-28T10:50:30;8.70;;;1.55;;
77522;SDS011;66637;-29.628;-49.938;2023-05-28T10:53:10;6.15;;;0.68;;
77522;SDS011;66637;-29.628;-49.938;2023-05-28T10:56:17;9.13;;;0.90;;
77522;SDS011;66637;-29.628;-49.938;2023-05-28T10:59:16;7.47;;;0.60;;
77522;SDS011;66637;-29.628;-49.938;2023-05-28T11:02:10;5.93;;;1.15;;
77522;SDS011;66637;-29.628;-49.938;2023-05-28T11:08:27;8.40;;;0.82;;
77522;SDS011;66637;-29.628;-49.938;2023-05-28T11:11:37;8.95;;;0.93;;
77522;SDS011;66637;-29.628;-49.938;2023-05-28T11:14:29;9.00;;;0.95;;
77522;SDS011;66637;-29.628;-49.938;2023-05-28T11:17:11;6.93;;;1.00;;
77522;SDS011;66637;-29.628;-49.938;2023-05-28T11:19:52;5.80;;;1.17;;
77522;SDS011;66637;-29.628;-49.938;2023-05-28T11:22:54;9.10;;;1.05;;
77522;SDS011;66637;-29.628;-49.938;2023-05-28T11:25:43;11.02;;;1.00;;
77522;SDS011;66637;-29.628;-49.938;2023-05-28T11:29:11;8.38;;;0.95;;
77522;SDS011;66637;-29.628;-49.938;2023-05-28T11:32:11;10.73;;;1.10;;
77522;SDS011;66637;-29.628;-49.938;2023-05-28T11:35:35;8.68;;;1.10;;
77522;SDS011;66637;-29.628;-49.938;2023-05-28T11:38:12;7.10;;;0.93;;
77522;SDS011;66637;-29.628;-49.938;2023-05-28T11:40:49;8.00;;;0.77;;
77522;SDS011;66637;-29.628;-49.938;2023-05-28T11:43:48;8.60;;;1.25;;
77522;SDS011;66637;-29.628;-49.938;2023-05-28T11:47:05;10.98;;;1.08;;
77522;SDS011;66637;-29.628;-49.938;2023-05-28T11:49:56;8.25;;;1.13;;
77522;SDS011;66637;-29.628;-49.938;2023-05-28T11:52:29;6.65;;;0.80;;
77522;SDS011;66637;-29.628;-49.938;2023-05-28T11:55:03;11.43;;;1.00;;
77522;SDS011;66637;-29.628;-49.938;2023-05-28T11:57:34;8.73;;;0.80;;
77522;SDS011;66637;-29.628;-49.938;2023-05-28T12:00:28;11.05;;;0.82;;
77522;SDS011;66637;-29.628;-49.938;2023-05-28T12:03:50;14.57;;;1.50;;
77522;SDS011;66637;-29.628;-49.938;2023-05-28T12:06:22;5.13;;;0.80;;
77522;SDS011;66637;-29.628;-49.938;2023-05-28T12:09:08;10.82;;;0.80;;
77522;SDS011;66637;-29.628;-49.938;2023-05-28T12:14:36;6.93;;;0.88;;
77522;SDS011;66637;-29.628;-49.938;2023-05-28T12:17:08;9.18;;;1.20;;
77522;SDS011;66637;-29.628;-49.938;2023-05-28T12:19:42;9.07;;;0.98;;
77522;SDS011;66637;-29.628;-49.938;2023-05-28T12:22:14;7.25;;;1.02;;
77522;SDS011;66637;-29.628;-49.938;2023-05-28T12:24:51;7.57;;;0.90;;
77522;SDS011;66637;-29.628;-49.938;2023-05-28T12:27:38;7.50;;;0.77;;
77522;SDS011;66637;-29.628;-49.938;2023-05-28T12:30:10;8.93;;;0.80;;
77522;SDS011;66637;-29.628;-49.938;2023-05-28T12:32:42;6.57;;;0.77;;
77522;SDS011;66637;-29.628;-49.938;2023-05-28T12:35:13;7.43;;;0.85;;
77522;SDS011;66637;-29.628;-49.938;2023-05-28T12:37:46;5.75;;;1.05;;
77522;SDS011;66637;-29.628;-49.938;2023-05-28T12:40:20;9.38;;;1.25;;
77522;SDS011;66637;-29.628;-49.938;2023-05-28T12:45:48;8.40;;;0.90;;
77522;SDS011;66637;-29.628;-49.938;2023-05-28T12:48:26;7.93;;;1.05;;
77522;SDS011;66637;-29.628;-49.938;2023-05-28T12:51:02;6.43;;;0.63;;
77522;SDS011;66637;-29.628;-49.938;2023-05-28T12:53:34;6.57;;;1.20;;
77522;SDS011;66637;-29.628;-49.938;2023-05-28T12:56:10;7.03;;;0.73;;
77522;SDS011;66637;-29.628;-49.938;2023-05-28T12:59:03;7.70;;;0.90;;
77522;SDS011;66637;-29.628;-49.938;2023-05-28T13:01:36;5.15;;;1.48;;
77522;SDS011;66637;-29.628;-49.938;2023-05-28T13:04:23;9.35;;;1.05;;
77522;SDS011;66637;-29.628;-49.938;2023-05-28T13:07:06;6.15;;;1.05;;
77522;SDS011;66637;-29.628;-49.938;2023-05-28T13:12:16;10.48;;;1.20;;
77522;SDS011;66637;-29.628;-49.938;2023-05-28T13:14:49;5.72;;;1.05;;
77522;SDS011;66637;-29.628;-49.938;2023-05-28T13:17:23;7.40;;;1.02;;
77522;SDS011;66637;-29.628;-49.938;2023-05-28T13:19:55;9.13;;;0.98;;
77522;SDS011;66637;-29.628;-49.938;2023-05-28T13:22:26;8.75;;;0.80;;
77522;SDS011;66637;-29.628;-49.938;2023-05-28T13:24:58;6.82;;;0.93;;
77522;SDS011;66637;-29.628;-49.938;2023-05-28T13:27:42;7.55;;;0.80;;
77522;SDS011;66637;-29.628;-49.938;2023-05-28T13:30:15;4.38;;;0.77;;
77522;SDS011;66637;-29.628;-49.938;2023-05-28T13:32:47;6.65;;;0.80;;
77522;SDS011;66637;-29.628;-49.938;2023-05-28T13:35:21;6.78;;;0.90;;
77522;SDS011;66637;-29.628;-49.938;2023-05-28T13:37:54;10.38;;;1.10;;
77522;SDS011;66637;-29.628;-49.938;2023-05-28T13:40:30;4.80;;;0.65;;
77522;SDS011;66637;-29.628;-49.938;2023-05-28T13:43:03;7.47;;;0.60;;
77522;SDS011;66637;-29.628;-49.938;2023-05-28T13:45:37;5.20;;;0.82;;
77522;SDS011;66637;-29.628;-49.938;2023-05-28T13:48:11;5.38;;;1.02;;
77522;SDS011;66637;-29.628;-49.938;2023-05-28T13:50:43;10.07;;;1.13;;
77522;SDS011;66637;-29.628;-49.938;2023-05-28T13:53:15;7.68;;;0.90;;
77522;SDS011;66637;-29.628;-49.938;2023-05-28T13:55:47;7.18;;;0.77;;
77522;SDS011;66637;-29.628;-49.938;2023-05-28T13:58:29;5.70;;;1.02;;
77522;SDS011;66637;-29.628;-49.938;2023-05-28T14:01:00;7.93;;;0.73;;
77522;SDS011;66637;-29.628;-49.938;2023-05-28T14:03:31;6.22;;;0.82;;
77522;SDS011;66637;-29.628;-49.938;2023-05-28T14:06:03;6.85;;;0.80;;
77522;SDS011;66637;-29.628;-49.938;2023-05-28T14:08:35;5.00;;;0.70;;
77522;SDS011;66637;-29.628;-49.938;2023-05-28T14:11:08;4.78;;;0.60;;
77522;SDS011;66637;-29.628;-49.938;2023-05-28T14:13:38;9.75;;;1.10;;
77522;SDS011;66637;-29.628;-49.938;2023-05-28T14:16:10;6.78;;;0.85;;
77522;SDS011;66637;-29.628;-49.938;2023-05-28T14:18:41;4.75;;;1.02;;
77522;SDS011;66637;-29.628;-49.938;2023-05-28T14:21:12;5.97;;;0.90;;
77522;SDS011;66637;-29.628;-49.938;2023-05-28T14:23:45;7.57;;;1.00;;
77522;SDS011;66637;-29.628;-49.938;2023-05-28T14:26:16;6.57;;;1.02;;
77522;SDS011;66637;-29.628;-49.938;2023-05-28T14:28:47;5.72;;;1.00;;
77522;SDS011;66637;-29.628;-49.938;2023-05-28T14:31:19;6.90;;;0.95;;
77522;SDS011;66637;-29.628;-49.938;2023-05-28T14:33:50;6.97;;;0.90;;
77522;SDS011;66637;-29.628;-49.938;2023-05-28T14:36:27;7.88;;;0.98;;
77522;SDS011;66637;-29.628;-49.938;2023-05-28T14:39:10;5.53;;;1.00;;
77522;SDS011;66637;-29.628;-49.938;2023-05-28T14:41:41;6.93;;;0.80;;
77522;SDS011;66637;-29.628;-49.938;2023-05-28T14:44:19;4.57;;;0.70;;
77522;SDS011;66637;-29.628;-49.938;2023-05-28T14:46:49;5.53;;;0.70;;
77522;SDS011;66637;-29.628;-49.938;2023-05-28T14:49:22;5.03;;;0.80;;
77522;SDS011;66637;-29.628;-49.938;2023-05-28T14:51:53;4.57;;;1.13;;
77522;SDS011;66637;-29.628;-49.938;2023-05-28T14:54:26;10.48;;;1.40;;
77522;SDS011;66637;-29.628;-49.938;2023-05-28T14:56:59;4.32;;;0.95;;
77522;SDS011;66637;-29.628;-49.938;2023-05-28T14:59:44;7.30;;;0.80;;
77522;SDS011;66637;-29.628;-49.938;2023-05-28T15:02:18;5.45;;;0.90;;
77522;SDS011;66637;-29.628;-49.938;2023-05-28T15:04:50;7.00;;;1.30;;
77522;SDS011;66637;-29.628;-49.938;2023-05-28T15:07:22;5.68;;;1.05;;
77522;SDS011;66637;-29.628;-49.938;2023-05-28T15:09:52;4.97;;;1.02;;
77522;SDS011;66637;-29.628;-49.938;2023-05-28T15:12:27;9.00;;;0.80;;
77522;SDS011;66637;-29.628;-49.938;2023-05-28T15:14:59;5.65;;;1.00;;
77522;SDS011;66637;-29.628;-49.938;2023-05-28T15:17:31;7.97;;;1.00;;
77522;SDS011;66637;-29.628;-49.938;2023-05-28T15:20:03;9.23;;;1.40;;
77522;SDS011;66637;-29.628;-49.938;2023-05-28T15:22:35;8.32;;;1.40;;
77522;SDS011;66637;-29.628;-49.938;2023-05-28T15:25:10;7.85;;;1.08;;
77522;SDS011;66637;-29.628;-49.938;2023-05-28T15:27:41;7.97;;;1.00;;
77522;SDS011;66637;-29.628;-49.938;2023-05-28T15:30:14;8.55;;;1.00;;
77522;SDS011;66637;-29.628;-49.938;2023-05-28T15:32:47;5.00;;;1.00;;
77522;SDS011;66637;-29.628;-49.938;2023-05-28T15:35:19;6.57;;;0.88;;
77522;SDS011;66637;-29.628;-49.938;2023-05-28T15:37:52;8.55;;;1.08;;
77522;SDS011;66637;-29.628;-49.938;2023-05-28T15:40:26;9.95;;;1.05;;
77522;SDS011;66637;-29.628;-49.938;2023-05-28T15:43:02;7.53;;;1.67;;
77522;SDS011;66637;-29.628;-49.938;2023-05-28T15:48:10;5.03;;;0.93;;
77522;SDS011;66637;-29.628;-49.938;2023-05-28T15:50:41;6.45;;;0.93;;
77522;SDS011;66637;-29.628;-49.938;2023-05-28T15:53:14;5.90;;;1.20;;
77522;SDS011;66637;-29.628;-49.938;2023-05-28T15:55:46;9.10;;;1.40;;
77522;SDS011;66637;-29.628;-49.938;2023-05-28T15:58:20;5.70;;;1.00;;
77522;SDS011;66637;-29.628;-49.938;2023-05-28T16:00:54;7.63;;;1.10;;
77522;SDS011;66637;-29.628;-49.938;2023-05-28T16:03:28;9.80;;;1.38;;
77522;SDS011;66637;-29.628;-49.938;2023-05-28T16:06:00;7.75;;;1.15;;
77522;SDS011;66637;-29.628;-49.938;2023-05-28T16:08:31;7.10;;;1.02;;
77522;SDS011;66637;-29.628;-49.938;2023-05-28T16:11:03;5.38;;;1.00;;